Timeline UpdatesTrip UpdatesNews PostsPvt Posts♥♥Travel TipsAdmin PostsConv PostsFollowed PostsChat RequestsBlog PostsPNR Posts

Disclaimer
Search
 
 
Wed Oct 22, 2014 05:26:29 ISTHomeTrainsΣChainsAtlasPNRForumGalleryNewsFAQTripsMembersLoginFeedback
Latest...
Will Reach MAS @ 04.25 Wef 01/07/2014.
Sat Jun 28, 2014 (08:32PM)
⇐ Return Journey: Train# 11028

11027/Mumbai CST-Chennai Mail

Time-Table HAS CHANGED.
Sep 01 2014 (11:43PM)
Change Departure Station:
Change Arrival Station:
Post a Train Travel TipPost a Train Travel Tip **new
Post a Comment/Question/Picture/VideoPost a Comment/Question/Picture/Video
Pantry/Catering
✓ Pantry Car Avbl
✓ Catering Avbl
RSA - Rake Sharing
11042 Mumbai Express
Rake/Coach Composition
Loco ;SLR ,UR ,S1, S2, S3, S4, S5, S6, S7,PC ,S8,S9,S10,A1,B1 ,RMS ,UR,LDS ,S11 (S11 From Daund Junction To Solapur)
Loco
CSTM-PUNE: KYN WCAM-2P / 3 PUNE-GTL: GY WDM-3A/3D GTL-MAS: LGD WAP4
News    PNR    Forum    Time-Table    Availability    Fare Chart    Map    Arr/Dep History    Trips    Gallery    ΣChains    X/O    Timeline    
Travel Time: 1h 50m    2 halts    Distance: 92 km    Avg Speed: 50 km/hr
Type: Mail/Express
Zone: CR/Central
Departs @ 01:25 (Avg 23m late)
Platform# 1
SMTWTFS
Karjat Junction/KJT 
Arrives @ 03:15 (Avg 18m late)
Platform# 4
SMTWTFS
Pune Junction/PUNE 

2 halts. 24 intermediate Stations between Karjat Junction and Pune Junction

Show ALL intermediate Stations  Show Old Time-Table

#TrkCodeStation NameX/OArrivesAvgDepartsAvgHaltPFDay#KmSpeedElevZoneAddress
1/==/CSTMMumbai CST (18)  -23:45+3--1-99.96510mCRMumbai 400001, Maharashtra
2/==/DRMumbai Dadar Central (8)  23:53+1023:55+102m51-91.3647mCRMumbai 400014, Maharashtra
3/==/KYNKalyan Junction (8)  00:35 00:37+1400:40+165 3m52-46.96510mCRKalyan 421301, Maharashtra
4/==/KJTKarjat Junction (4)»X01:23+2001:25+232m120.03957mCRKarjat, Maharashtra
5/==/LNLLonavala (3)X02:13 02:09+1302:15 02:10+152 1m2228.672623mCRLonavala 410401, Maharashtra
6/==/KKKhadki (3)  02:58+2003:00+192m1286.324562mCRPune 411003, Maharashtra
7/==/PUNEPune Junction (6)•03:25 03:15+1803:35 03:25+2810m4292.348556mCRPune 411001, Maharashtra
8%==%DDDaund Junction (7)O05:05 05:00+605:15 05:10+1610m32167.972521mCRNew Daund Dist. Pune 413801, Maharashtra
9%==!BGVNBhigwan (2)X  05:38 05:33+2205:40 05:35+252m12195.548509mCRDaund, Maharashtra
10!==!JEURJeur (1)XO  06:28 06:33+3006:30 06:35+352m12241.6121526mCRJeur, Maharashtra
11!==!KEMKem (2)X  06:48 06:43+4106:50 06:45+452m12257.747548mCRKem, Maharashtra
12!==!KWVKurduvadi Junction (4)X  07:30 07:08+4607:32 07:10+522m22275.841516mCRKurduvadi Dist-Solapur, Maharashtra
13!==!MAMadha (2)O  07:48 07:33+4607:50 07:35+472m22291.764481mCRSolapur, Maharashtra
14!==|MOMohol (2)X  08:19 08:03+5008:21 08:05+512m12321.529458mCRSolapur, Maharashtra
15|==|SURSolapur (5)09:15+2109:25+2810m12354.860461mCRSolapur 413001, Maharashtra
16|==!HGHotgi Junction (3)X  09:39 09:40+3209:41+332 1m22369.881473mCRHotgi 413215, Maharashtra
17!==!AKORAkalkot Road (2)  09:56+4009:58+412m12390.167456mCRDist Solapur, Maharashtra
18!==!DUDDudhani (2)X  10:23+4910:25+512m12418.063457mCRSolapur, Maharashtra
19!==!GURGanagapur Road  10:46 10:47+5510:48+552 1m12441.041445mCRDist Gulbarga, Karnataka
20!==%GRGulbarga (4)  11:28 11:27+4111:30+412 3m32467.457458mCRGulbarga 585101, Karnataka
21%==%SDBShahabad (3)X  11:58+3612:00+352m22494.110403mCRShahabad, Karnataka
22%==%WADIWadi Junction (4)X  12:50 13:00-212:55 13:05+25m22504.291431mCRWadi, Karnataka
23%==%NWNalwar (2)  13:08 13:14+1013:10 13:15+112 1m22517.990406mSCRGulbarga, Karnataka
24%==%YGYadgir (3)  13:32+1513:34+152m12543.377369mSCRYadgir, Karnataka
25%==%SADPSaidapur (3)  13:51 13:52+1913:53+192 1m12566.481377mSCRYadgir Dist., Karnataka
26%==%KSNKrishna (2)  14:08+2414:10+242m12586.738352mSCRDist Mahabubnagar, Telangana
27%==%RCRaichur Junction (3)X  14:53 14:50+1414:55+142 5m12611.8115406mSCRRaichur, Karnataka
28%==%MTUMatmari  15:03 15:04+2415:05+242 1m12629.129371mSCRRaichur, Karnataka
29%==%MALMMantralayam Road (3)X  15:28+1415:30+242m12640.242335mSCRKurnool Tel: 08512-259830, Andhra Pradesh
30%==%KOKosigi (2)X  15:48 15:49+2115:50+222 1m12653.443379mSCRKurnool Dist., Andhra Pradesh
31%==%KGLKupgal (2)  16:08 16:09+1716:10+182 1m12667.118417mSCRKurnool Dist., Andhra Pradesh
32%==%ADAdoni (4)  16:58+217:00+22m12681.563420mSCRAdoni Tel: 08512-252368, Andhra Pradesh
33%==%NRRNagarur (2)  17:08 17:09+617:10+52 1m12691.057427mSCRKurnool, Andhra Pradesh
34|-=%GTLGuntakal Junction (6)17:55+1318:15+1520m22733.569453mSCRGuntakal. Tel: 08552-227131/32, Andhra Pradesh
35/==/GYGooty Junction (2)  18:40+2818:42+292m--2762.175370mSCRNH 7 Anantapur District, Andhra Pradesh
36/==/RLORayala Cheruvu (2)X  19:00 19:01+3619:02+362 1m--2785.757292mSCRRayalacheruvu, Andhra Pradesh
37/==/TUTadipatri (3)19:28+3519:30+352m--2810.251243mSCRAnantapuram Dist, Andhra Pradesh
38/==/KDPKondapuram (2)  20:03+2620:05+262m--2838.279214mSCRKadapa (YSR District), Andhra Pradesh
39/==/MOOMuddanuru (3)  20:23+3020:25+292m--2861.875194mSCRKadapa (YSR District), Andhra Pradesh
40/==/YAYerraguntla (2)  20:38+3520:40+352m--2878.151171mSCRKadapa / Cuddapah (YSR District), Andhra Pradesh
41/==/KKMKamalapuram (2)  20:58+3321:00+332m--2893.547141mSCRKadapa (YSR District), Andhra Pradesh
42/==/HXKadapa (3)  21:33 21:30+2421:35+252 5m12917.251146mSCRCuddapah, Andhra Pradesh
43/==/NRENandalur  22:23+1622:25+172m--2957.735143mSCRRayalaseema Region, Andhra Pradesh
44/==/RJPRazampeta (2)  22:43+1322:45+142m--2968.272144mSCRKadapa (YSR District), Andhra Pradesh
45/==/KOUKoduru (2)  23:13+1723:15+172m--21001.825215mSCRKadapa (YSR District), Andhra Pradesh
46/==/RURenigunta Junction (5)X  00:55+001:00+25m131042.659113mSCRChittoor District, Andhra Pradesh
47/==/PUTPuttur (3)  01:23 01:24+1101:25+112 1m--31066.153149mSRPuttur, Andhra Pradesh
48/==/TRTTiruttani (3)  01:58 01:59+402:00+62 1m331096.44384mSRTiruttani, Tamil Nadu
49/==/AJJArakkonam Junction (8)  02:20+602:25+65m--31110.76791mSRArakkonam, Tamil Nadu
50/==/TRLTiruvallur (6)  02:48 02:49+802:50+92 1m--31137.76450mSRTiruvallur, Tamil Nadu
51/==/PERPerambur (4)XO  03:23 03:24+903:25+102 1m--31173.967mSRChennai-600011 Phone: 044-25510359, Tamil Nadu
52/==/MASChennai Central (12)  04:25-1-131179.4-9mSRChennai 600003, Tamil Nadu
Scroll to Top
Scroll to Bottom